This is the latest recevied weather packets stored in our database for station/object SP9KB-13. If no packets are shown the sender has not sent any weather packets the latest 1 day(s).
| Time | Temp. | Humidity | Pressure | Rain* | Wind** | Luminosity | Snow |
|---|---|---|---|---|---|---|---|
| 1777977977 | 23.89° C | 34% | 993.4 hPa | 0 mm | 0.45 m/s, 185° | - | - |
| 1777977676 | 23.89° C | 32% | 993.1 hPa | 0 mm | 2.68 m/s, 229° | - | - |
| 1777977376 | 23.33° C | 35% | 993.5 hPa | 0 mm | 0.89 m/s, 169° | - | - |
| 1777977075 | 22.78° C | 34% | 993.4 hPa | 0 mm | 1.34 m/s, 141° | - | - |
| 1777976775 | 22.78° C | 35% | 993.5 hPa | 0 mm | 0.89 m/s, 177° | - | - |
| 1777976474 | 22.78° C | 34% | 993.8 hPa | 0 mm | 1.34 m/s, 243° | - | - |
| 1777976173 | 22.22° C | 36% | 993.7 hPa | 0 mm | 0.89 m/s, 271° | - | - |
| 1777975873 | 22.78° C | 35% | 994.1 hPa | 0 mm | 0.45 m/s, 122° | - | - |
| 1777975572 | 22.78° C | 34% | 994.1 hPa | 0 mm | 1.79 m/s, 136° | - | - |
| 1777975272 | 22.78° C | 35% | 994.1 hPa | 0 mm | 1.79 m/s, 199° | - | - |
| 1777974971 | 22.78° C | 34% | 994 hPa | 0 mm | 2.24 m/s, 160° | - | - |
| 1777974671 | 22.22° C | 36% | 993.9 hPa | 0 mm | 5.36 m/s, 231° | - | - |
| 1777974370 | 22.22° C | 35% | 994.3 hPa | 0 mm | 1.34 m/s, 232° | - | - |
| 1777974070 | 21.67° C | 35% | 994.2 hPa | 0 mm | 3.58 m/s, 237° | - | - |
| 1777973769 | 21.67° C | 36% | 994.2 hPa | 0 mm | 2.24 m/s, 238° | - | - |
| 1777973468 | 21.67° C | 38% | 994.3 hPa | 0 mm | 1.34 m/s, 132° | - | - |
| 1777973168 | 21.67° C | 37% | 994.2 hPa | 0 mm | 1.79 m/s, 214° | - | - |
| 1777972867 | 21.11° C | 39% | 994.2 hPa | 0 mm | 0.89 m/s, 208° | - | - |
| 1777972567 | 21.11° C | 38% | 994.3 hPa | 0 mm | 2.24 m/s, 217° | - | - |
| 1777972266 | 21.67° C | 38% | 994.3 hPa | 0 mm | 1.34 m/s, 222° | - | - |
| 1777971965 | 21.67° C | 38% | 994.3 hPa | 0 mm | 2.24 m/s, 252° | - | - |
| 1777971665 | 21.67° C | 40% | 994.5 hPa | 0 mm | 0.45 m/s, 122° | - | - |
| 1777971364 | 21.11° C | 39% | 994.5 hPa | 0 mm | 0.45 m/s, 219° | - | - |
| 1777971063 | 21.11° C | 39% | 994.6 hPa | 0 mm | 0 m/s | - | - |
| 1777970763 | 21.11° C | 38% | 994.8 hPa | 0 mm | 2.24 m/s, 240° | - | - |
* Rain latest hour (hover to see other rain measurements)
** Current wind speed in m/s (hover to see current wind gust speed)